Terminal Aerodrome Forecast
Issued by NWS

Home | Current Version | Previous Version | Text Only | Print | Product List | Glossary On
Versions: 1 2 3 4 5 6 7 8 9 10 11 12 13
000
FTUS42 KMLB 291725
TAFSFB
TAF
KSFB 291725Z 2918/3018 24011KT P6SM VCTS SCT040CB BKN250
      TEMPO 2918/2920 4SM TSRA BKN025CB BKN035
     FM300100 20005KT P6SM SCT080 BKN250
     FM301500 19004KT P6SM FEW025 FEW250=

USA.gov is the U.S. government's official web portal to all federal, state and local government web resources and services.